createdAt,value
2022-10-16T00:00:59.159Z,68.35
2022-10-16T00:03:43.306Z,66.10
2022-10-16T00:06:12.055Z,66.78
2022-10-16T00:08:39.912Z,63.50
2022-10-16T00:11:12.576Z,71.83
2022-10-16T00:13:41.769Z,68.93
2022-10-16T00:16:10.115Z,74.17
2022-10-16T00:18:38.212Z,70.13
2022-10-16T00:21:07.129Z,74.20
2022-10-16T00:23:34.564Z,66.73
2022-10-16T00:26:08.103Z,69.93
2022-10-16T00:28:36.177Z,73.57
2022-10-16T00:31:07.574Z,73.50
2022-10-16T00:33:35.164Z,70.67
2022-10-16T00:36:03.760Z,70.60
2022-10-16T00:38:30.815Z,71.80
2022-10-16T00:40:58.225Z,69.80
2022-10-16T00:43:44.005Z,73.70
2022-10-16T00:46:16.501Z,72.97
2022-10-16T00:48:49.569Z,75.57
2022-10-16T00:51:17.142Z,69.03
2022-10-16T00:53:45.348Z,68.65
2022-10-16T00:56:12.192Z,66.05
2022-10-16T00:58:39.275Z,73.10
2022-10-16T01:01:06.151Z,71.22
2022-10-16T01:03:36.574Z,70.88
2022-10-16T01:09:01.687Z,70.50
2022-10-16T01:11:33.506Z,74.43
2022-10-16T01:14:07.251Z,70.37
2022-10-16T01:16:53.915Z,69.82
2022-10-16T01:19:53.431Z,67.93
2022-10-16T01:22:23.598Z,63.27
2022-10-16T01:24:50.953Z,67.47
2022-10-16T01:27:31.737Z,68.40
2022-10-16T01:30:31.208Z,60.28
2022-10-16T01:33:01.930Z,65.53
2022-10-16T01:36:05.716Z,65.83
2022-10-16T01:38:40.897Z,62.63
2022-10-16T01:41:17.434Z,62.40
2022-10-16T01:43:49.305Z,65.93
2022-10-16T01:46:19.873Z,62.67
2022-10-16T01:48:49.423Z,63.95
2022-10-16T01:51:18.859Z,59.10
2022-10-16T01:53:52.106Z,61.80
2022-10-16T01:56:23.450Z,65.13
2022-10-16T01:59:12.339Z,60.60
2022-10-16T02:01:43.228Z,63.23
2022-10-16T02:04:24.743Z,60.13
2022-10-16T02:06:53.140Z,61.90
2022-10-16T02:09:20.019Z,62.70
2022-10-16T02:11:47.747Z,64.50
2022-10-16T02:14:14.411Z,64.90
2022-10-16T02:16:47.408Z,66.18
2022-10-16T02:19:16.808Z,68.45
2022-10-16T02:21:53.096Z,66.10
2022-10-16T02:24:32.378Z,68.67
2022-10-16T02:27:22.073Z,63.38
2022-10-16T02:29:59.541Z,62.53
2022-10-16T02:32:32.398Z,68.00
2022-10-16T02:35:01.071Z,69.67
2022-10-16T02:37:29.139Z,63.67
2022-10-16T02:39:58.661Z,65.15
2022-10-16T02:42:37.188Z,67.17
2022-10-16T02:45:06.000Z,66.77
2022-10-16T02:47:32.972Z,66.23
2022-10-16T02:50:00.130Z,68.77
2022-10-16T02:52:27.477Z,65.15
2022-10-16T02:54:54.706Z,62.77
2022-10-16T02:57:21.710Z,61.55
2022-10-16T02:59:48.573Z,72.65
2022-10-16T03:02:15.517Z,65.97
2022-10-16T03:04:42.295Z,65.43
2022-10-16T03:07:09.344Z,61.33
2022-10-16T03:09:36.178Z,62.97
2022-10-16T03:12:03.261Z,57.08
2022-10-16T03:14:30.307Z,60.85
2022-10-16T03:16:57.204Z,58.73
2022-10-16T03:19:24.098Z,62.83
2022-10-16T03:21:51.024Z,54.55
2022-10-16T03:24:17.862Z,60.40
2022-10-16T03:26:45.037Z,56.90
2022-10-16T03:29:11.887Z,54.60
2022-10-16T03:31:38.873Z,57.63
2022-10-16T03:34:05.569Z,65.23
2022-10-16T03:36:32.797Z,61.75
2022-10-16T03:38:59.517Z,57.97
2022-10-16T03:41:26.435Z,56.97
2022-10-16T03:43:53.134Z,55.20
2022-10-16T03:46:20.046Z,57.55
2022-10-16T03:48:46.792Z,55.60
2022-10-16T03:51:13.735Z,58.83
2022-10-16T03:53:40.451Z,57.33
2022-10-16T03:56:07.683Z,53.80
2022-10-16T03:58:34.383Z,57.03
2022-10-16T04:01:01.437Z,52.65
2022-10-16T04:03:28.319Z,55.45
2022-10-16T04:05:55.607Z,56.07
2022-10-16T04:08:22.366Z,54.17
2022-10-16T04:10:49.319Z,53.15
2022-10-16T04:13:16.219Z,50.33
2022-10-16T04:15:43.492Z,56.72
2022-10-16T04:18:10.214Z,52.45
2022-10-16T04:20:37.210Z,53.75
2022-10-16T04:23:03.969Z,51.83
2022-10-16T04:25:31.417Z,51.15
2022-10-16T04:27:58.180Z,52.50
2022-10-16T04:30:25.220Z,55.03
2022-10-16T04:32:52.776Z,53.07
2022-10-16T04:35:21.776Z,52.05
2022-10-16T04:37:48.681Z,54.70
2022-10-16T04:40:15.901Z,51.03
2022-10-16T04:42:42.734Z,51.10
2022-10-16T04:45:12.131Z,49.07
2022-10-16T04:47:41.627Z,51.20
2022-10-16T04:50:09.303Z,50.80
2022-10-16T04:55:08.229Z,54.47
2022-10-16T04:57:34.979Z,52.30
2022-10-16T05:00:01.940Z,51.58
2022-10-16T05:02:28.874Z,50.63
2022-10-16T05:04:55.899Z,48.97
2022-10-16T05:07:22.649Z,49.17
2022-10-16T05:09:49.684Z,52.40
2022-10-16T05:12:16.516Z,52.08
2022-10-16T05:14:43.491Z,45.47
2022-10-16T05:17:10.369Z,49.53
2022-10-16T05:19:37.240Z,54.97
2022-10-16T05:22:04.210Z,49.08
2022-10-16T05:24:31.199Z,44.92
2022-10-16T05:26:58.068Z,48.67
2022-10-16T05:29:25.207Z,47.83
2022-10-16T05:31:53.733Z,49.92
2022-10-16T05:34:21.785Z,46.03
2022-10-16T05:36:48.625Z,48.75
2022-10-16T05:39:16.762Z,58.50
2022-10-16T05:41:44.616Z,57.97
2022-10-16T05:44:12.123Z,53.75
2022-10-16T05:46:38.854Z,54.60
2022-10-16T05:49:05.762Z,60.17
2022-10-16T05:51:32.601Z,57.03
2022-10-16T05:53:59.592Z,52.88
2022-10-16T05:56:26.628Z,54.42
2022-10-16T05:58:53.649Z,53.17
2022-10-16T06:01:25.177Z,56.00
2022-10-16T06:03:53.126Z,51.37
2022-10-16T06:06:22.855Z,57.30
2022-10-16T06:08:50.091Z,49.63
2022-10-16T06:11:26.348Z,45.67
2022-10-16T06:13:54.973Z,47.90
2022-10-16T06:16:21.987Z,45.67
2022-10-16T06:18:49.238Z,45.05
2022-10-16T06:21:20.036Z,45.72
2022-10-16T06:23:47.637Z,41.45
2022-10-16T06:26:18.192Z,40.05
2022-10-16T06:28:45.469Z,38.53
2022-10-16T06:31:13.334Z,35.60
2022-10-16T06:33:41.039Z,40.80
2022-10-16T06:36:13.674Z,36.70
2022-10-16T06:38:41.545Z,39.20
2022-10-16T06:41:12.142Z,37.83
2022-10-16T06:43:39.200Z,36.77
2022-10-16T06:46:08.831Z,36.10
2022-10-16T06:48:36.011Z,33.33
2022-10-16T06:51:09.753Z,38.95
2022-10-16T06:53:54.542Z,40.28
2022-10-16T06:56:28.886Z,37.10
2022-10-16T06:58:56.136Z,32.17
2022-10-16T07:01:24.836Z,33.83
2022-10-16T07:03:52.844Z,34.85
2022-10-16T07:06:22.214Z,33.58
2022-10-16T07:08:50.094Z,33.22
2022-10-16T07:11:19.282Z,28.50
2022-10-16T07:13:52.552Z,30.02
2022-10-16T07:16:28.060Z,27.77
2022-10-16T07:19:00.041Z,29.70
2022-10-16T07:21:30.739Z,28.35
2022-10-16T07:24:00.422Z,26.33
2022-10-16T07:26:28.934Z,26.20
2022-10-16T07:28:56.138Z,21.42
2022-10-16T07:31:23.807Z,22.77
2022-10-16T07:33:51.859Z,22.75
2022-10-16T07:36:20.707Z,20.58
2022-10-16T07:38:48.538Z,16.88
2022-10-16T07:41:17.525Z,15.52
2022-10-16T07:43:51.738Z,14.65
2022-10-16T07:46:20.512Z,14.90
2022-10-16T07:48:48.989Z,15.73
2022-10-16T07:51:18.568Z,13.90
2022-10-16T07:53:46.132Z,16.70
2022-10-16T07:56:13.432Z,14.13
2022-10-16T07:58:40.950Z,16.60
2022-10-16T08:01:09.993Z,16.38
2022-10-16T08:03:37.661Z,17.58
2022-10-16T08:06:05.558Z,20.08
2022-10-16T08:08:32.858Z,15.73
2022-10-16T08:10:59.898Z,17.52
2022-10-16T08:13:27.618Z,18.35
2022-10-16T08:15:54.968Z,15.82
2022-10-16T08:18:22.362Z,16.77
2022-10-16T08:20:49.295Z,16.48
2022-10-16T08:23:16.234Z,14.50
2022-10-16T08:25:43.038Z,13.68
2022-10-16T08:28:12.005Z,18.60
2022-10-16T08:30:39.106Z,15.40
2022-10-16T08:33:07.420Z,11.40
2022-10-16T08:35:34.622Z,18.38
2022-10-16T08:38:04.903Z,15.88
2022-10-16T08:40:33.517Z,13.23
2022-10-16T08:43:30.175Z,14.18
2022-10-16T08:46:22.335Z,12.82
2022-10-16T08:48:55.688Z,12.48
2022-10-16T08:51:29.067Z,11.80
2022-10-16T08:54:35.747Z,13.65
2022-10-16T08:57:12.469Z,12.32
2022-10-16T08:59:39.562Z,11.70
2022-10-16T09:02:36.232Z,13.40
2022-10-16T09:05:24.219Z,12.25
2022-10-16T09:08:23.169Z,10.82
2022-10-16T09:11:25.703Z,17.88
2022-10-16T09:14:15.451Z,17.02
2022-10-16T09:16:47.420Z,11.38
2022-10-16T09:19:31.331Z,13.10
2022-10-16T09:22:02.863Z,12.48
2022-10-16T09:24:30.989Z,14.40
2022-10-16T09:26:57.950Z,12.63
2022-10-16T09:29:26.212Z,13.45
2022-10-16T09:31:55.775Z,13.48
2022-10-16T09:34:35.253Z,13.40
2022-10-16T09:37:07.097Z,14.82
2022-10-16T09:39:55.003Z,14.02
2022-10-16T09:42:35.432Z,12.98
2022-10-16T09:45:02.534Z,10.88
2022-10-16T09:47:31.641Z,11.82
2022-10-16T09:50:03.056Z,12.85
2022-10-16T09:52:31.671Z,12.10
2022-10-16T09:55:19.318Z,16.45
2022-10-16T09:57:53.759Z,12.23
2022-10-16T10:00:22.576Z,14.95
2022-10-16T10:02:50.319Z,16.48
2022-10-16T10:05:35.422Z,12.05
2022-10-16T10:08:07.370Z,16.35
2022-10-16T10:10:42.273Z,8.73
2022-10-16T10:13:21.228Z,8.85
2022-10-16T10:15:48.637Z,9.73
2022-10-16T10:18:18.690Z,9.77
2022-10-16T10:20:45.467Z,6.93
2022-10-16T10:23:24.328Z,7.68
2022-10-16T10:26:02.766Z,8.30
2022-10-16T10:28:41.751Z,7.13
2022-10-16T10:31:18.009Z,8.95
2022-10-16T10:33:55.470Z,8.27
2022-10-16T10:36:34.157Z,10.80
2022-10-16T10:39:03.889Z,6.72
2022-10-16T10:41:31.562Z,8.68
2022-10-16T10:44:07.840Z,8.20
2022-10-16T10:46:49.971Z,8.32
2022-10-16T10:49:38.177Z,8.88
2022-10-16T10:52:34.956Z,10.80
2022-10-16T10:55:17.808Z,8.23
2022-10-16T10:58:02.304Z,9.10
2022-10-16T11:00:51.901Z,9.23
2022-10-16T11:03:40.702Z,8.90
2022-10-16T11:06:13.340Z,7.07
2022-10-16T11:09:03.226Z,8.52
2022-10-16T11:11:38.760Z,9.10
2022-10-16T11:14:49.226Z,8.20
2022-10-16T11:17:35.244Z,9.10
2022-10-16T11:20:20.697Z,8.32
2022-10-16T11:22:53.842Z,9.50
2022-10-16T11:25:25.813Z,10.70
2022-10-16T11:27:58.523Z,8.45
2022-10-16T11:30:28.899Z,7.03
2022-10-16T11:33:13.372Z,7.70
2022-10-16T11:36:05.145Z,8.63
2022-10-16T11:38:39.971Z,11.38
2022-10-16T11:41:25.188Z,6.70
2022-10-16T11:44:27.679Z,8.98
2022-10-16T11:47:40.006Z,8.13
2022-10-16T11:50:23.669Z,8.38
2022-10-16T11:53:02.861Z,8.00
2022-10-16T11:55:44.771Z,8.43
2022-10-16T11:58:29.197Z,7.82
2022-10-16T12:01:16.002Z,8.13
2022-10-16T12:04:15.534Z,9.38
2022-10-16T12:06:58.869Z,8.35
2022-10-16T12:09:30.131Z,9.00
2022-10-16T12:11:57.373Z,11.02
2022-10-16T12:14:30.136Z,8.32
2022-10-16T12:17:24.893Z,8.75
2022-10-16T12:20:23.224Z,15.05
2022-10-16T12:22:59.330Z,12.20
2022-10-16T12:25:32.892Z,11.57
2022-10-16T12:28:05.882Z,8.43
2022-10-16T12:30:37.697Z,9.73
2022-10-16T12:33:07.867Z,8.35
2022-10-16T12:35:44.356Z,9.75
2022-10-16T12:38:19.506Z,7.95
2022-10-16T12:40:56.018Z,7.65
2022-10-16T12:43:39.804Z,9.07
2022-10-16T12:46:24.147Z,10.07
2022-10-16T12:49:05.905Z,9.30
2022-10-16T12:51:33.670Z,8.52
2022-10-16T12:54:05.041Z,8.45
2022-10-16T12:56:51.499Z,8.10
2022-10-16T12:59:43.298Z,6.75
2022-10-16T13:02:21.140Z,12.70
2022-10-16T13:05:11.583Z,7.38
2022-10-16T13:07:57.210Z,9.82
2022-10-16T13:10:36.221Z,9.85
2022-10-16T13:13:14.623Z,10.25
2022-10-16T13:15:57.433Z,11.43
2022-10-16T13:18:43.087Z,11.48
2022-10-16T13:21:38.431Z,7.40
2022-10-16T13:24:37.221Z,7.05
2022-10-16T13:27:19.542Z,11.30
2022-10-16T13:29:53.154Z,14.48
2022-10-16T13:32:21.177Z,8.90
2022-10-16T13:34:49.992Z,9.55
2022-10-16T13:37:22.573Z,6.32
2022-10-16T13:39:50.731Z,7.15
2022-10-16T13:42:30.329Z,8.23
2022-10-16T13:44:57.869Z,8.95
2022-10-16T13:47:27.681Z,9.45
2022-10-16T13:50:07.424Z,7.82
2022-10-16T13:52:34.405Z,9.50
2022-10-16T13:55:02.455Z,9.20
2022-10-16T13:57:29.893Z,9.57
2022-10-16T13:59:56.895Z,5.25
2022-10-16T14:02:27.922Z,8.10
2022-10-16T14:04:56.092Z,8.50
2022-10-16T14:07:26.968Z,9.88
2022-10-16T14:09:55.142Z,7.18
2022-10-16T14:12:27.157Z,6.82
2022-10-16T14:14:58.396Z,9.15
2022-10-16T14:17:30.709Z,10.15
2022-10-16T14:20:04.086Z,9.57
2022-10-16T14:22:41.817Z,11.50
2022-10-16T14:25:28.500Z,9.80
2022-10-16T14:27:59.994Z,10.00
2022-10-16T14:30:28.051Z,7.65
2022-10-16T14:33:00.433Z,13.40
2022-10-16T14:35:39.422Z,12.55
2022-10-16T14:38:07.774Z,10.63
2022-10-16T14:40:38.755Z,7.05
2022-10-16T14:43:06.393Z,7.03
2022-10-16T14:45:36.464Z,11.70
2022-10-16T14:48:18.816Z,9.07
2022-10-16T14:50:47.089Z,7.65
2022-10-16T14:53:14.814Z,7.43
2022-10-16T14:55:43.106Z,10.90
2022-10-16T14:58:21.964Z,10.88
2022-10-16T15:00:49.353Z,8.23
2022-10-16T15:03:16.521Z,10.77
2022-10-16T15:05:43.656Z,11.77
2022-10-16T15:08:10.709Z,8.02
2022-10-16T15:10:43.866Z,8.23
2022-10-16T15:13:13.788Z,10.00
2022-10-16T15:15:46.569Z,9.48
2022-10-16T15:18:15.917Z,10.13
2022-10-16T15:20:43.015Z,8.70
2022-10-16T15:23:21.994Z,14.52
2022-10-16T15:25:54.268Z,13.10
2022-10-16T15:28:22.730Z,9.65
2022-10-16T15:30:52.039Z,11.18
2022-10-16T15:33:21.217Z,14.15
2022-10-16T15:35:49.305Z,10.75
2022-10-16T15:38:17.227Z,7.95
2022-10-16T15:40:44.180Z,11.13
2022-10-16T15:43:11.562Z,8.23
2022-10-16T15:45:38.735Z,10.77
2022-10-16T15:48:05.655Z,8.43
2022-10-16T15:50:33.211Z,10.20
2022-10-16T15:53:00.085Z,11.57
2022-10-16T15:55:27.061Z,17.35
2022-10-16T15:57:53.859Z,12.27
2022-10-16T16:00:26.490Z,16.40
2022-10-16T16:02:54.482Z,16.35
2022-10-16T16:05:23.124Z,15.32
2022-10-16T16:07:51.053Z,22.65
2022-10-16T16:10:18.922Z,15.05
2022-10-16T16:12:52.474Z,16.77
2022-10-16T16:15:23.649Z,27.25
2022-10-16T16:17:50.634Z,32.28
2022-10-16T16:20:17.683Z,38.13
2022-10-16T16:22:44.575Z,17.85
2022-10-16T16:25:11.951Z,28.88
2022-10-16T16:27:39.491Z,33.05
2022-10-16T16:30:08.534Z,35.70
2022-10-16T16:32:36.235Z,21.00
2022-10-16T16:35:04.536Z,30.38
2022-10-16T16:37:31.826Z,25.58
2022-10-16T16:40:01.530Z,26.50
2022-10-16T16:42:28.889Z,23.85
2022-10-16T16:44:56.112Z,23.88
2022-10-16T16:47:22.929Z,18.98
2022-10-16T16:49:49.968Z,18.77
2022-10-16T16:52:16.841Z,17.92
2022-10-16T16:54:45.465Z,16.33
2022-10-16T16:57:12.236Z,20.50
2022-10-16T16:59:39.355Z,19.00
2022-10-16T17:02:06.626Z,19.13
2022-10-16T17:04:33.618Z,28.70
2022-10-16T17:07:00.356Z,20.83
2022-10-16T17:09:27.376Z,23.88
2022-10-16T17:11:54.154Z,19.83
2022-10-16T17:14:21.243Z,19.08
2022-10-16T17:16:49.816Z,15.18
2022-10-16T17:19:19.414Z,14.95
2022-10-16T17:21:49.082Z,15.15
2022-10-16T17:24:16.298Z,14.80
2022-10-16T17:26:48.811Z,14.50
2022-10-16T17:29:18.381Z,15.65
2022-10-16T17:31:46.600Z,14.55
2022-10-16T17:34:14.130Z,12.35
2022-10-16T17:36:44.138Z,10.98
2022-10-16T17:39:13.922Z,14.02
2022-10-16T17:41:40.813Z,10.93
2022-10-16T17:44:08.277Z,10.98
2022-10-16T17:46:39.965Z,13.25
2022-10-16T17:49:10.620Z,13.63
2022-10-16T17:51:37.437Z,13.15
2022-10-16T17:54:04.731Z,11.20
2022-10-16T17:56:31.883Z,12.13
2022-10-16T17:59:01.751Z,13.38
2022-10-16T18:01:31.660Z,11.48
2022-10-16T18:04:19.038Z,13.45
2022-10-16T18:06:47.414Z,17.45
2022-10-16T18:09:18.136Z,12.95
2022-10-16T18:11:45.414Z,14.32
2022-10-16T18:14:17.713Z,11.65
2022-10-16T18:16:44.733Z,13.02
2022-10-16T18:19:12.021Z,13.18
2022-10-16T18:21:39.074Z,13.88
2022-10-16T18:24:06.143Z,14.43
2022-10-16T18:26:33.257Z,14.07
2022-10-16T18:29:01.015Z,16.00
2022-10-16T18:31:28.857Z,15.98
2022-10-16T18:33:56.174Z,15.35
2022-10-16T18:36:34.842Z,14.68
2022-10-16T18:39:10.558Z,15.82
2022-10-16T18:41:40.945Z,12.93
2022-10-16T18:44:10.727Z,11.52
2022-10-16T18:46:38.459Z,12.35
2022-10-16T18:49:05.668Z,15.52
2022-10-16T18:51:35.678Z,14.87
2022-10-16T18:54:07.365Z,17.95
2022-10-16T18:56:34.232Z,13.47
2022-10-16T18:59:04.015Z,14.80
2022-10-16T19:01:33.174Z,16.33
2022-10-16T19:04:09.344Z,15.10
2022-10-16T19:06:40.112Z,19.43
2022-10-16T19:09:08.498Z,15.63
2022-10-16T19:11:39.247Z,15.33
2022-10-16T19:14:08.720Z,14.90
2022-10-16T19:16:37.206Z,13.93
2022-10-16T19:19:07.556Z,18.97
2022-10-16T19:21:40.092Z,11.83
2022-10-16T19:24:08.988Z,13.30
2022-10-16T19:26:38.161Z,21.87
2022-10-16T19:29:09.219Z,14.77
2022-10-16T19:31:36.508Z,26.60
2022-10-16T19:34:04.415Z,13.33
2022-10-16T19:36:34.146Z,12.23
2022-10-16T19:39:04.730Z,11.37
2022-10-16T19:41:32.220Z,13.73
2022-10-16T19:44:03.779Z,15.47
2022-10-16T19:46:31.273Z,14.43
2022-10-16T19:49:00.771Z,16.63
2022-10-16T19:51:28.892Z,21.30
2022-10-16T19:54:01.028Z,19.47
2022-10-16T19:56:30.223Z,17.80
2022-10-16T19:58:58.613Z,20.67
2022-10-16T20:01:28.021Z,12.47
2022-10-16T20:03:55.630Z,17.37
2022-10-16T20:06:22.659Z,23.75
2022-10-16T20:08:51.703Z,17.77
2022-10-16T20:11:22.191Z,13.80
2022-10-16T20:13:49.750Z,15.93
2022-10-16T20:16:19.144Z,16.83
2022-10-16T20:18:47.976Z,17.20
2022-10-16T20:21:17.255Z,23.33
2022-10-16T20:23:45.026Z,19.47
2022-10-16T20:26:11.890Z,20.97
2022-10-16T20:28:40.893Z,16.60
2022-10-16T20:31:11.159Z,26.60
2022-10-16T20:33:38.309Z,18.03
2022-10-16T20:36:05.367Z,15.00
2022-10-16T20:38:32.336Z,17.77
2022-10-16T20:41:04.008Z,17.37
2022-10-16T20:43:31.087Z,18.33
2022-10-16T20:46:04.299Z,18.03
2022-10-16T20:48:32.168Z,21.93
2022-10-16T20:51:00.066Z,25.20
2022-10-16T20:53:27.071Z,27.53
2022-10-16T20:55:53.807Z,22.93
2022-10-16T20:58:20.749Z,20.97
2022-10-16T21:00:47.501Z,21.30
2022-10-16T21:03:14.524Z,19.47
2022-10-16T21:05:42.638Z,27.40
2022-10-16T21:08:09.811Z,19.77
2022-10-16T21:10:36.619Z,18.00
2022-10-16T21:13:03.879Z,15.30
2022-10-16T21:15:30.762Z,18.73
2022-10-16T21:17:57.728Z,18.70
2022-10-16T21:20:24.552Z,14.67
2022-10-16T21:22:51.625Z,15.00
2022-10-16T21:25:18.669Z,16.60
2022-10-16T21:27:45.996Z,19.83
2022-10-16T21:30:13.021Z,28.47
2022-10-16T21:32:40.358Z,15.23
2022-10-16T21:35:07.672Z,22.07
2022-10-16T21:37:35.170Z,60.70
2022-10-16T21:40:02.085Z,41.67
2022-10-16T21:42:29.462Z,30.43
2022-10-16T21:44:56.587Z,28.47
2022-10-16T21:47:23.700Z,53.40
2022-10-16T21:49:50.501Z,47.73
2022-10-16T21:52:17.532Z,45.07
2022-10-16T21:54:44.357Z,42.03
2022-10-16T21:57:11.329Z,33.90
2022-10-16T21:59:38.090Z,25.77
2022-10-16T22:02:06.056Z,43.60
2022-10-16T22:04:33.160Z,45.40
2022-10-16T22:07:00.156Z,36.87
2022-10-16T22:09:27.091Z,32.73
2022-10-16T22:11:54.025Z,32.60
2022-10-16T22:14:21.869Z,44.00
2022-10-16T22:16:49.883Z,32.07
2022-10-16T22:19:19.916Z,32.43
2022-10-16T22:21:48.277Z,30.23
2022-10-16T22:24:16.111Z,36.80
2022-10-16T22:26:43.518Z,61.00
2022-10-16T22:29:13.072Z,30.53
2022-10-16T22:31:40.105Z,31.73
2022-10-16T22:34:07.069Z,30.50
2022-10-16T22:36:34.282Z,34.60
2022-10-16T22:39:01.280Z,36.00
2022-10-16T22:41:28.508Z,58.33
2022-10-16T22:43:55.333Z,39.20
2022-10-16T22:46:25.651Z,33.53
2022-10-16T22:48:52.902Z,34.93
2022-10-16T22:51:20.372Z,37.17
2022-10-16T22:53:49.428Z,39.60
2022-10-16T22:56:19.507Z,30.60
2022-10-16T22:58:46.395Z,25.80
2022-10-16T23:01:16.661Z,33.90
2022-10-16T23:03:43.467Z,26.83
2022-10-16T23:06:10.462Z,40.73
2022-10-16T23:08:37.308Z,37.50
2022-10-16T23:11:09.344Z,38.67
2022-10-16T23:13:38.058Z,33.43
2022-10-16T23:16:06.607Z,27.77
2022-10-16T23:18:34.613Z,68.20
2022-10-16T23:21:09.330Z,42.17
2022-10-16T23:23:37.155Z,32.20
2022-10-16T23:26:08.581Z,31.07
2022-10-16T23:28:35.410Z,30.70
2022-10-16T23:31:05.411Z,30.43
2022-10-16T23:33:33.733Z,30.27
2022-10-16T23:36:08.173Z,36.37
2022-10-16T23:38:35.184Z,26.97
2022-10-16T23:41:02.793Z,25.20
2022-10-16T23:43:29.738Z,28.87
2022-10-16T23:45:56.917Z,31.30
2022-10-16T23:48:24.047Z,33.77
2022-10-16T23:50:51.044Z,32.43
2022-10-16T23:53:18.058Z,33.93
2022-10-16T23:55:45.146Z,37.33
2022-10-16T23:58:11.932Z,39.37
